createdAt,value
2023-04-29T00:00:50.387Z,19.30
2023-04-29T00:03:23.080Z,19.30
2023-04-29T00:05:56.340Z,19.30
2023-04-29T00:08:28.826Z,19.20
2023-04-29T00:11:01.508Z,19.20
2023-04-29T00:13:34.143Z,19.20
2023-04-29T00:16:07.466Z,19.20
2023-04-29T00:18:40.059Z,19.20
2023-04-29T00:21:12.716Z,19.20
2023-04-29T00:23:45.157Z,19.20
2023-04-29T00:26:17.868Z,19.10
2023-04-29T00:28:52.784Z,19.10
2023-04-29T00:31:26.343Z,19.10
2023-04-29T00:33:59.043Z,19.10
2023-04-29T00:36:32.694Z,19.10
2023-04-29T00:39:05.386Z,19.10
2023-04-29T00:41:38.832Z,19.10
2023-04-29T00:44:11.853Z,19.10
2023-04-29T00:46:44.743Z,19.10
2023-04-29T00:49:17.366Z,19.10
2023-04-29T00:51:50.714Z,19.10
2023-04-29T00:54:23.283Z,19.10
2023-04-29T00:56:57.366Z,19.10
2023-04-29T00:59:32.639Z,19.10
2023-04-29T01:02:06.950Z,19.00
2023-04-29T01:04:39.637Z,19.00
2023-04-29T01:07:35.158Z,19.00
2023-04-29T01:10:27.420Z,19.00
2023-04-29T01:13:08.715Z,19.00
2023-04-29T01:15:59.407Z,18.90
2023-04-29T01:18:41.621Z,18.90
2023-04-29T01:21:14.640Z,18.90
2023-04-29T01:23:47.957Z,18.90
2023-04-29T01:26:20.548Z,18.90
2023-04-29T01:29:23.416Z,18.90
2023-04-29T01:32:05.334Z,18.80
2023-04-29T01:34:53.862Z,18.90
2023-04-29T01:37:38.429Z,18.80
2023-04-29T01:40:23.106Z,18.80
2023-04-29T01:43:13.072Z,18.80
2023-04-29T01:45:51.688Z,18.80
2023-04-29T01:48:25.356Z,18.80
2023-04-29T01:50:58.572Z,18.80
2023-04-29T01:53:31.206Z,18.80
2023-04-29T01:56:03.701Z,18.80
2023-04-29T01:58:49.077Z,18.80
2023-04-29T02:01:37.932Z,18.80
2023-04-29T02:04:10.616Z,18.80
2023-04-29T02:06:43.393Z,18.80
2023-04-29T02:09:16.052Z,18.80
2023-04-29T02:11:55.091Z,18.80
2023-04-29T02:14:27.644Z,18.80
2023-04-29T02:17:00.858Z,18.80
2023-04-29T02:19:33.724Z,18.70
2023-04-29T02:22:06.486Z,18.80
2023-04-29T02:24:39.436Z,18.70
2023-04-29T02:27:13.091Z,18.70
2023-04-29T02:29:45.573Z,18.70
2023-04-29T02:32:20.336Z,18.70
2023-04-29T02:34:53.120Z,18.70
2023-04-29T02:37:27.609Z,18.70
2023-04-29T02:40:00.201Z,18.70
2023-04-29T02:42:32.724Z,18.60
2023-04-29T02:45:07.535Z,18.60
2023-04-29T02:47:40.082Z,18.60
2023-04-29T02:50:12.731Z,18.60
2023-04-29T02:52:45.319Z,18.60
2023-04-29T02:55:19.105Z,18.60
2023-04-29T02:57:51.678Z,18.60
2023-04-29T03:00:24.441Z,18.60
2023-04-29T03:02:57.933Z,18.60
2023-04-29T03:05:30.698Z,18.60
2023-04-29T03:08:04.948Z,18.50
2023-04-29T03:10:41.507Z,18.50
2023-04-29T03:13:14.424Z,18.50
2023-04-29T03:15:47.305Z,18.50
2023-04-29T03:18:20.308Z,18.50
2023-04-29T03:20:54.108Z,18.40
2023-04-29T03:23:27.098Z,18.40
2023-04-29T03:26:01.758Z,18.50
2023-04-29T03:28:34.396Z,18.40
2023-04-29T03:31:07.015Z,18.40
2023-04-29T03:33:39.581Z,18.40
2023-04-29T03:36:12.278Z,18.40
2023-04-29T03:38:55.508Z,18.40
2023-04-29T03:41:28.213Z,18.40
2023-04-29T03:44:01.232Z,18.30
2023-04-29T03:46:35.143Z,18.30
2023-04-29T03:49:08.071Z,18.40
2023-04-29T03:51:40.807Z,18.30
2023-04-29T03:54:21.916Z,18.40
2023-04-29T03:56:56.399Z,18.30
2023-04-29T03:59:29.682Z,18.30
2023-04-29T04:02:03.321Z,18.30
2023-04-29T04:04:36.281Z,18.30
2023-04-29T04:07:09.129Z,18.30
2023-04-29T04:10:01.636Z,18.30
2023-04-29T04:12:34.084Z,18.30
2023-04-29T04:15:06.999Z,18.30
2023-04-29T04:17:39.807Z,18.30
2023-04-29T04:20:13.452Z,18.30
2023-04-29T04:22:46.098Z,18.30
2023-04-29T04:25:23.827Z,18.30
2023-04-29T04:27:57.690Z,18.30
2023-04-29T04:30:50.421Z,18.30
2023-04-29T04:33:23.157Z,18.30
2023-04-29T04:35:55.731Z,18.20
2023-04-29T04:38:28.463Z,18.20
2023-04-29T04:41:01.594Z,18.20
2023-04-29T04:43:42.662Z,18.30
2023-04-29T04:46:24.026Z,18.40
2023-04-29T04:49:11.786Z,18.60
2023-04-29T04:51:49.969Z,19.00
2023-04-29T04:54:22.387Z,19.30
2023-04-29T04:56:59.317Z,19.70
2023-04-29T04:59:32.121Z,20.10
2023-04-29T05:02:04.686Z,20.30
2023-04-29T05:04:37.528Z,20.60
2023-04-29T05:07:10.948Z,21.00
2023-04-29T05:10:04.177Z,21.40
2023-04-29T05:12:38.540Z,21.70
2023-04-29T05:15:11.636Z,22.10
2023-04-29T05:17:44.637Z,22.40
2023-04-29T05:20:17.176Z,22.70
2023-04-29T05:22:49.851Z,23.10
2023-04-29T05:25:22.446Z,23.30
2023-04-29T05:27:55.245Z,23.60
2023-04-29T05:30:28.557Z,23.80
2023-04-29T05:33:01.376Z,24.10
2023-04-29T05:35:33.923Z,24.40
2023-04-29T05:38:07.024Z,24.60
2023-04-29T05:40:45.904Z,24.80
2023-04-29T05:43:38.369Z,24.90
2023-04-29T05:46:11.044Z,25.00
2023-04-29T05:48:44.400Z,24.90
2023-04-29T05:51:18.092Z,24.90
2023-04-29T05:53:50.750Z,24.80
2023-04-29T05:56:24.639Z,24.80
2023-04-29T05:58:57.191Z,24.70
2023-04-29T06:01:29.774Z,24.70
2023-04-29T06:04:03.711Z,24.60
2023-04-29T06:06:44.573Z,24.60
2023-04-29T06:09:28.192Z,24.50
2023-04-29T06:12:05.437Z,24.50
2023-04-29T06:14:38.143Z,24.50
2023-04-29T06:17:11.360Z,24.50
2023-04-29T06:19:44.043Z,24.50
2023-04-29T06:22:16.677Z,24.40
2023-04-29T06:24:54.432Z,24.40
2023-04-29T06:27:47.292Z,24.50
2023-04-29T06:30:21.099Z,24.50
2023-04-29T06:32:53.852Z,24.60
2023-04-29T06:35:26.602Z,24.60
2023-04-29T06:38:19.401Z,24.60
2023-04-29T06:41:12.182Z,24.70
2023-04-29T06:44:02.944Z,24.70
2023-04-29T06:46:53.935Z,24.70
2023-04-29T06:49:37.458Z,24.70
2023-04-29T06:52:11.736Z,24.80
2023-04-29T06:54:44.345Z,24.80
2023-04-29T06:57:17.455Z,24.80
2023-04-29T06:59:52.023Z,24.80
2023-04-29T07:02:24.540Z,24.90
2023-04-29T07:04:57.441Z,24.90
2023-04-29T07:07:30.515Z,24.80
2023-04-29T07:10:03.351Z,24.80
2023-04-29T07:12:37.548Z,24.80
2023-04-29T07:15:10.648Z,24.90
2023-04-29T07:17:43.223Z,24.90
2023-04-29T07:20:16.009Z,25.00
2023-04-29T07:22:48.599Z,25.00
2023-04-29T07:25:21.244Z,25.00
2023-04-29T07:27:53.884Z,25.10
2023-04-29T07:30:26.412Z,25.00
2023-04-29T07:32:59.080Z,25.00
2023-04-29T07:35:31.997Z,25.00
2023-04-29T07:38:04.526Z,24.90
2023-04-29T07:40:38.991Z,24.90
2023-04-29T07:43:11.764Z,25.00
2023-04-29T07:45:44.842Z,25.00
2023-04-29T07:48:17.385Z,25.00
2023-04-29T07:50:49.997Z,25.00
2023-04-29T07:53:23.105Z,25.10
2023-04-29T07:55:57.462Z,25.10
2023-04-29T07:58:31.532Z,25.20
2023-04-29T08:01:12.353Z,25.20
2023-04-29T08:03:46.482Z,25.20
2023-04-29T08:06:22.514Z,25.30
2023-04-29T08:08:56.710Z,25.30
2023-04-29T08:11:29.251Z,25.30
2023-04-29T08:14:01.752Z,25.40
2023-04-29T08:16:34.761Z,25.40
2023-04-29T08:19:07.356Z,25.40
2023-04-29T08:21:39.968Z,25.40
2023-04-29T08:24:12.685Z,25.40
2023-04-29T08:26:45.265Z,25.50
2023-04-29T08:29:17.991Z,25.60
2023-04-29T08:31:51.004Z,25.60
2023-04-29T08:34:26.764Z,25.70
2023-04-29T08:36:59.218Z,25.70
2023-04-29T08:39:32.090Z,25.70
2023-04-29T08:42:12.202Z,25.70
2023-04-29T08:44:45.356Z,25.70
2023-04-29T08:47:18.185Z,25.80
2023-04-29T08:49:51.430Z,25.90
2023-04-29T08:52:25.225Z,25.90
2023-04-29T08:54:57.973Z,25.90
2023-04-29T08:57:40.003Z,25.90
2023-04-29T09:00:13.908Z,26.00
2023-04-29T09:02:54.250Z,25.90
2023-04-29T09:05:28.142Z,25.90
2023-04-29T09:08:03.582Z,25.90
2023-04-29T09:10:42.349Z,25.80
2023-04-29T09:13:29.521Z,25.70
2023-04-29T09:16:02.415Z,25.70
2023-04-29T09:18:51.983Z,25.70
2023-04-29T09:21:33.469Z,25.60
2023-04-29T09:24:06.094Z,25.60
2023-04-29T09:26:43.495Z,25.60
2023-04-29T09:29:18.682Z,25.50
2023-04-29T09:31:53.882Z,25.50
2023-04-29T09:34:36.314Z,25.50
2023-04-29T09:37:26.902Z,25.40
2023-04-29T09:40:00.355Z,25.40
2023-04-29T09:42:43.887Z,25.40
2023-04-29T09:45:35.985Z,25.40
2023-04-29T09:48:10.283Z,25.30
2023-04-29T09:50:45.241Z,25.30
2023-04-29T09:53:30.584Z,25.30
2023-04-29T09:56:03.979Z,25.30
2023-04-29T09:59:01.267Z,25.20
2023-04-29T10:01:36.174Z,25.20
2023-04-29T10:04:11.693Z,25.20
2023-04-29T10:06:52.123Z,25.20
2023-04-29T10:09:24.929Z,25.20
2023-04-29T10:11:57.332Z,25.20
2023-04-29T10:14:33.586Z,25.20
2023-04-29T10:17:16.794Z,25.20
2023-04-29T10:20:08.331Z,25.20
2023-04-29T10:22:48.175Z,25.10
2023-04-29T10:25:22.424Z,25.00
2023-04-29T10:27:56.244Z,24.90
2023-04-29T10:30:29.290Z,24.80
2023-04-29T10:33:03.709Z,24.80
2023-04-29T10:35:38.013Z,24.80
2023-04-29T10:38:21.477Z,24.80
2023-04-29T10:40:57.275Z,24.80
2023-04-29T10:43:31.974Z,24.70
2023-04-29T10:46:24.133Z,24.70
2023-04-29T10:49:03.832Z,24.60
2023-04-29T10:51:42.195Z,24.50
2023-04-29T10:54:16.916Z,24.40
2023-04-29T10:56:51.752Z,24.40
2023-04-29T10:59:44.213Z,24.30
2023-04-29T11:02:16.708Z,24.30
2023-04-29T11:05:11.428Z,24.20
2023-04-29T11:07:46.356Z,24.10
2023-04-29T11:10:19.061Z,24.00
2023-04-29T11:13:27.731Z,24.00
2023-04-29T11:16:08.223Z,23.90
2023-04-29T11:19:05.149Z,23.80
2023-04-29T11:21:38.395Z,23.70
2023-04-29T11:24:11.168Z,23.60
2023-04-29T11:26:44.737Z,23.50
2023-04-29T11:29:20.140Z,23.40
2023-04-29T11:32:01.918Z,23.30
2023-04-29T11:34:34.732Z,23.20
2023-04-29T11:37:07.395Z,23.20
2023-04-29T11:39:40.014Z,23.20
2023-04-29T11:42:12.536Z,23.20
2023-04-29T11:44:46.037Z,23.20
2023-04-29T11:47:18.716Z,23.10
2023-04-29T11:49:51.278Z,23.10
2023-04-29T11:52:23.973Z,23.10
2023-04-29T11:54:59.611Z,23.00
2023-04-29T11:57:32.426Z,22.90
2023-04-29T12:00:06.738Z,22.90
2023-04-29T12:02:46.685Z,22.90
2023-04-29T12:05:20.046Z,22.80
2023-04-29T12:07:52.552Z,22.80
2023-04-29T12:10:25.208Z,22.80
2023-04-29T12:12:57.810Z,22.80
2023-04-29T12:15:31.755Z,22.80
2023-04-29T12:18:04.566Z,22.80
2023-04-29T12:20:39.465Z,22.80
2023-04-29T12:23:16.481Z,22.80
2023-04-29T12:26:00.697Z,22.80
2023-04-29T12:28:34.934Z,22.80
2023-04-29T12:31:10.152Z,22.80
2023-04-29T12:33:46.056Z,22.80
2023-04-29T12:36:19.448Z,22.80
2023-04-29T12:38:54.948Z,22.80
2023-04-29T12:41:42.970Z,22.80
2023-04-29T12:44:16.557Z,22.80
2023-04-29T12:46:49.113Z,22.80
2023-04-29T12:49:24.844Z,22.80
2023-04-29T12:51:57.389Z,22.90
2023-04-29T12:54:30.723Z,22.90
2023-04-29T12:57:04.422Z,22.90
2023-04-29T12:59:37.404Z,22.80
2023-04-29T13:02:10.336Z,22.80
2023-04-29T13:04:43.887Z,22.90
2023-04-29T13:07:16.633Z,22.90
2023-04-29T13:09:49.523Z,22.90
2023-04-29T13:12:22.337Z,22.90
2023-04-29T13:14:57.810Z,22.90
2023-04-29T13:17:30.671Z,22.80
2023-04-29T13:20:05.056Z,22.80
2023-04-29T13:22:37.758Z,22.90
2023-04-29T13:25:10.898Z,22.90
2023-04-29T13:27:44.322Z,22.80
2023-04-29T13:30:16.973Z,22.80
2023-04-29T13:32:55.152Z,22.80
2023-04-29T13:35:31.232Z,22.80
2023-04-29T13:38:03.892Z,22.80
2023-04-29T13:40:41.706Z,22.80
2023-04-29T13:43:26.501Z,22.80
2023-04-29T13:46:07.442Z,22.80
2023-04-29T13:51:53.733Z,22.80
2023-04-29T13:57:30.177Z,22.80
2023-04-29T13:59:44.866Z,22.80
2023-04-29T14:02:25.459Z,22.80
2023-04-29T14:04:59.041Z,22.80
2023-04-29T14:07:32.052Z,22.80
2023-04-29T14:10:04.906Z,22.80
2023-04-29T14:12:37.285Z,22.80
2023-04-29T14:15:10.410Z,22.80
2023-04-29T14:17:42.997Z,22.90
2023-04-29T14:20:15.534Z,22.80
2023-04-29T14:22:48.160Z,22.80
2023-04-29T14:25:20.670Z,22.80
2023-04-29T14:27:53.212Z,22.80
2023-04-29T14:30:25.776Z,22.70
2023-04-29T14:32:58.599Z,22.70
2023-04-29T14:35:31.792Z,22.80
2023-04-29T14:38:04.677Z,22.80
2023-04-29T14:40:39.355Z,22.70
2023-04-29T14:43:11.908Z,22.70
2023-04-29T14:45:45.471Z,22.70
2023-04-29T14:48:17.950Z,22.70
2023-04-29T14:50:50.490Z,22.80
2023-04-29T14:53:23.031Z,22.80
2023-04-29T14:55:55.659Z,22.80
2023-04-29T14:58:28.180Z,22.80
2023-04-29T15:01:00.734Z,22.80
2023-04-29T15:03:33.373Z,22.80
2023-04-29T15:06:06.157Z,22.80
2023-04-29T15:08:38.784Z,22.80
2023-04-29T15:11:11.398Z,22.80
2023-04-29T15:13:43.981Z,22.80
2023-04-29T15:16:16.436Z,22.80
2023-04-29T15:18:49.029Z,22.70
2023-04-29T15:21:22.401Z,22.70
2023-04-29T15:23:54.973Z,22.70
2023-04-29T15:26:27.586Z,22.70
2023-04-29T15:29:00.157Z,22.60
2023-04-29T15:31:32.991Z,22.60
2023-04-29T15:34:05.789Z,22.50
2023-04-29T15:36:38.223Z,22.60
2023-04-29T15:39:11.361Z,22.60
2023-04-29T15:41:44.055Z,22.50
2023-04-29T15:44:16.628Z,22.50
2023-04-29T15:46:49.172Z,22.50
2023-04-29T15:49:23.366Z,22.50
2023-04-29T15:51:56.983Z,22.50
2023-04-29T15:54:29.580Z,22.60
2023-04-29T15:57:04.071Z,22.60
2023-04-29T15:59:36.653Z,22.50
2023-04-29T16:02:11.132Z,22.50
2023-04-29T16:04:43.868Z,22.50
2023-04-29T16:07:17.413Z,22.50
2023-04-29T16:09:49.981Z,22.50
2023-04-29T16:12:23.806Z,22.50
2023-04-29T16:14:56.370Z,22.50
2023-04-29T16:17:29.017Z,22.50
2023-04-29T16:20:02.276Z,22.50
2023-04-29T16:22:34.804Z,22.50
2023-04-29T16:25:07.764Z,22.50
2023-04-29T16:27:40.133Z,22.50
2023-04-29T16:30:12.887Z,22.50
2023-04-29T16:32:45.496Z,22.50
2023-04-29T16:35:18.162Z,22.50
2023-04-29T16:37:50.699Z,22.50
2023-04-29T16:40:24.670Z,22.50
2023-04-29T16:42:58.025Z,22.50
2023-04-29T16:45:30.711Z,22.50
2023-04-29T16:48:03.409Z,22.50
2023-04-29T16:50:37.811Z,22.50
2023-04-29T16:53:10.340Z,22.50
2023-04-29T16:55:42.906Z,22.50
2023-04-29T16:58:15.407Z,22.50
2023-04-29T17:00:48.259Z,22.50
2023-04-29T17:03:20.943Z,22.50
2023-04-29T17:05:53.616Z,22.50
2023-04-29T17:08:26.389Z,22.50
2023-04-29T17:10:59.446Z,22.40
2023-04-29T17:13:31.858Z,22.40
2023-04-29T17:16:04.752Z,22.40
2023-04-29T17:18:37.579Z,22.40
2023-04-29T17:21:13.120Z,22.30
2023-04-29T17:23:56.700Z,22.30
2023-04-29T17:27:04.344Z,22.30
2023-04-29T17:29:37.195Z,22.30
2023-04-29T17:32:15.323Z,22.20
2023-04-29T17:34:52.399Z,22.20
2023-04-29T17:37:26.082Z,22.20
2023-04-29T17:39:59.015Z,22.20
2023-04-29T17:42:32.269Z,22.20
2023-04-29T17:45:06.005Z,22.20
2023-04-29T17:47:38.573Z,22.10
2023-04-29T17:50:12.235Z,22.10
2023-04-29T17:52:44.929Z,22.10
2023-04-29T17:55:17.783Z,22.10
2023-04-29T17:57:53.323Z,22.10
2023-04-29T18:00:26.052Z,22.20
2023-04-29T18:02:58.706Z,22.10
2023-04-29T18:05:31.419Z,22.10
2023-04-29T18:08:04.318Z,22.10
2023-04-29T18:10:36.751Z,22.10
2023-04-29T18:13:09.261Z,22.20
2023-04-29T18:15:41.859Z,22.10
2023-04-29T18:18:14.563Z,22.10
2023-04-29T18:20:47.274Z,22.10
2023-04-29T18:23:19.766Z,22.10
2023-04-29T18:25:52.717Z,22.10
2023-04-29T18:28:25.697Z,22.10
2023-04-29T18:30:58.486Z,22.10
2023-04-29T18:33:31.757Z,22.10
2023-04-29T18:36:04.573Z,22.10
2023-04-29T18:38:37.499Z,22.00
2023-04-29T18:41:12.223Z,22.10
2023-04-29T18:43:44.753Z,22.10
2023-04-29T18:46:17.452Z,22.00
2023-04-29T18:48:50.004Z,22.00
2023-04-29T18:51:23.191Z,22.10
2023-04-29T18:53:55.861Z,22.10
2023-04-29T18:56:28.468Z,22.10
2023-04-29T18:59:01.061Z,22.10
2023-04-29T19:01:33.600Z,22.10
2023-04-29T19:04:08.012Z,22.10
2023-04-29T19:06:42.823Z,22.10
2023-04-29T19:09:15.642Z,22.10
2023-04-29T19:11:48.250Z,22.10
2023-04-29T19:14:20.810Z,22.00
2023-04-29T19:16:55.025Z,22.10
2023-04-29T19:19:27.653Z,22.10
2023-04-29T19:22:00.763Z,22.00
2023-04-29T19:24:35.489Z,22.10
2023-04-29T19:27:08.426Z,22.10
2023-04-29T19:29:40.793Z,22.10
2023-04-29T19:32:13.328Z,22.10
2023-04-29T19:34:46.027Z,22.10
2023-04-29T19:37:18.766Z,22.00
2023-04-29T19:39:51.628Z,22.00
2023-04-29T19:42:24.247Z,22.00
2023-04-29T19:44:56.947Z,22.00
2023-04-29T19:47:29.474Z,22.00
2023-04-29T19:50:02.368Z,22.00
2023-04-29T19:52:34.904Z,22.00
2023-04-29T19:55:09.136Z,22.00
2023-04-29T19:57:42.370Z,21.90
2023-04-29T20:00:15.071Z,21.90
2023-04-29T20:02:50.990Z,21.90
2023-04-29T20:05:23.697Z,21.90
2023-04-29T20:07:56.410Z,21.90
2023-04-29T20:10:30.119Z,21.90
2023-04-29T20:13:03.228Z,21.80
2023-04-29T20:15:35.824Z,21.80
2023-04-29T20:18:08.392Z,21.80
2023-04-29T20:20:41.029Z,21.80
2023-04-29T20:23:13.828Z,21.80
2023-04-29T20:25:46.852Z,21.80
2023-04-29T20:28:19.162Z,21.70
2023-04-29T20:30:51.660Z,21.70
2023-04-29T20:33:24.188Z,21.70
2023-04-29T20:35:57.923Z,21.70
2023-04-29T20:38:35.385Z,21.70
2023-04-29T20:41:08.191Z,21.70
2023-04-29T20:43:40.779Z,21.70
2023-04-29T20:46:13.983Z,21.70
2023-04-29T20:48:46.476Z,21.60
2023-04-29T20:51:19.085Z,21.60
2023-04-29T20:53:52.278Z,21.60
2023-04-29T20:56:26.188Z,21.60
2023-04-29T20:58:59.802Z,21.60
2023-04-29T21:01:35.594Z,21.60
2023-04-29T21:04:10.524Z,21.60
2023-04-29T21:06:43.250Z,21.60
2023-04-29T21:09:17.840Z,21.60
2023-04-29T21:11:50.418Z,21.60
2023-04-29T21:14:23.034Z,21.60
2023-04-29T21:16:55.985Z,21.60
2023-04-29T21:19:28.399Z,21.60
2023-04-29T21:22:01.611Z,21.60
2023-04-29T21:24:34.165Z,21.60
2023-04-29T21:27:06.618Z,21.60
2023-04-29T21:29:41.131Z,21.60
2023-04-29T21:32:14.845Z,21.60
2023-04-29T21:34:47.946Z,21.60
2023-04-29T21:37:20.233Z,21.50
2023-04-29T21:39:53.091Z,21.50
2023-04-29T21:42:26.421Z,21.50
2023-04-29T21:45:01.396Z,21.50
2023-04-29T21:47:34.089Z,21.50
2023-04-29T21:50:08.339Z,21.50
2023-04-29T21:52:41.098Z,21.50
2023-04-29T21:55:13.767Z,21.50
2023-04-29T21:57:46.409Z,21.50
2023-04-29T22:00:31.009Z,21.50
2023-04-29T22:03:06.427Z,21.50
2023-04-29T22:05:39.134Z,21.50
2023-04-29T22:08:11.815Z,21.50
2023-04-29T22:10:44.425Z,21.50
2023-04-29T22:13:16.977Z,21.50
2023-04-29T22:15:49.621Z,21.50
2023-04-29T22:18:22.108Z,21.50
2023-04-29T22:20:54.682Z,21.50
2023-04-29T22:23:27.219Z,21.50
2023-04-29T22:25:59.798Z,21.50
2023-04-29T22:28:32.540Z,21.50
2023-04-29T22:31:05.810Z,21.50
2023-04-29T22:33:38.253Z,21.50
2023-04-29T22:36:10.861Z,21.50
2023-04-29T22:38:43.398Z,21.50
2023-04-29T22:41:16.731Z,21.50
2023-04-29T22:43:49.230Z,21.50
2023-04-29T22:46:21.719Z,21.50
2023-04-29T22:48:54.447Z,21.50
2023-04-29T22:51:26.988Z,21.50
2023-04-29T22:53:59.653Z,21.50
2023-04-29T22:56:32.745Z,21.40
2023-04-29T22:59:05.336Z,21.40
2023-04-29T23:01:38.321Z,21.40
2023-04-29T23:04:10.658Z,21.40
2023-04-29T23:06:43.432Z,21.40
2023-04-29T23:09:16.414Z,21.30
2023-04-29T23:11:48.893Z,21.40
2023-04-29T23:14:21.978Z,21.40
2023-04-29T23:16:54.477Z,21.40
2023-04-29T23:19:27.082Z,21.30
2023-04-29T23:22:00.122Z,21.30
2023-04-29T23:24:32.384Z,21.40
2023-04-29T23:27:04.981Z,21.30
2023-04-29T23:29:37.555Z,21.30
2023-04-29T23:32:10.172Z,21.30
2023-04-29T23:34:42.606Z,21.30
2023-04-29T23:37:15.302Z,21.30
2023-04-29T23:39:47.876Z,21.30
2023-04-29T23:42:20.460Z,21.30
2023-04-29T23:44:52.903Z,21.30
2023-04-29T23:47:25.580Z,21.20
2023-04-29T23:49:58.078Z,21.30
2023-04-29T23:52:30.786Z,21.30
2023-04-29T23:55:04.012Z,21.30
2023-04-29T23:57:36.620Z,21.30
